To NAV CANADA Home Page Login to a new session Search on AWWS site Feedback and Comments Disclaimer Vers la page française équivalente Tips FAQ What's new on the site To the Forecasts and Observations / NOTAM section To "File a Flight Plan" website Publications and other links Update of the User's profile FIC Telephone Numbers My Weather Data Folder Route Weather Data Regional Weather Data Local Weather Data To the Forecasts and Observations / NOTAM section
Request Generated 10/18/2017 at 03:51:08 UTC . Weather information available at that time is displayed.

METAR/TAF

TORONTO/LESTER B. PEARSON INTL/ON    

METAR CYYZ 180300Z 25006KT 15SM SKC 13/06 A3013 RMK SLP204=
METAR CYYZ 180200Z 25011KT 15SM SKC 13/07 A3012 RMK SLP202=
METAR CYYZ 180100Z 25009KT 15SM FEW250 14/07 A3010 RMK CI1 SLP198=

TAF CYYZ 180238Z 1803/1906 25010KT P6SM SKC
BECMG 1816/1818 23015G25KT
BECMG 1822/1824 22012KT
RMK NXT FCST BY 180600Z=
Your time UTC time
Weather data provided by Environment Canada and NAV CANADA